Ripley, California
Current Conditions -  °F | °C
As of 2:52 PM on Wednesday 22 Oct 2014 (Local Time) from KBLH Reporting Station
Clear Clear  
Wind Chill: 93°   Ceiling: Unl
Heat Index: 93°   Visibility: 10mi
Dew Point: 46°   Wind: 5mph
Humidity: 20%   Direction: 20°NNE
Pressure: 29.87"   Gusts: NA
Location:  33.5664°N, 114.628°W
Report Text: KBLH 222152Z AUTO 02004KT 10SM CLR 34/08 A2987 RMK AO2 SLP108 T03390078
Loading
Personal Weather Stations






























Interactive Weather Map
Tropical Storm Tracking
New forecast layout! Learn more

10-Day Weather Forecast

Advertisements
Track Severe Weather on mobile